createdAt,value
2022-10-17T00:01:33.762Z,7.94
2022-10-17T00:04:00.309Z,7.92
2022-10-17T00:06:26.531Z,7.93
2022-10-17T00:08:52.776Z,7.91
2022-10-17T00:11:22.438Z,7.85
2022-10-17T00:13:50.100Z,7.91
2022-10-17T00:16:23.714Z,7.92
2022-10-17T00:18:50.247Z,7.89
2022-10-17T00:21:19.868Z,7.80
2022-10-17T00:23:46.980Z,7.87
2022-10-17T00:26:14.485Z,7.85
2022-10-17T00:28:40.822Z,7.83
2022-10-17T00:31:09.438Z,7.83
2022-10-17T00:33:36.353Z,7.80
2022-10-17T00:36:07.841Z,7.73
2022-10-17T00:38:34.875Z,7.76
2022-10-17T00:41:02.117Z,7.66
2022-10-17T00:43:29.754Z,7.72
2022-10-17T00:45:56.499Z,7.68
2022-10-17T00:48:25.043Z,7.68
2022-10-17T00:50:52.287Z,7.60
2022-10-17T00:53:18.751Z,7.65
2022-10-17T00:55:50.771Z,7.52
2022-10-17T00:58:17.564Z,7.64
2022-10-17T01:00:44.732Z,7.64
2022-10-17T01:03:11.251Z,7.63
2022-10-17T01:05:38.310Z,7.65
2022-10-17T01:08:05.353Z,7.64
2022-10-17T01:10:53.371Z,7.48
2022-10-17T01:13:31.223Z,7.65
2022-10-17T01:16:17.131Z,7.62
2022-10-17T01:18:49.939Z,7.54
2022-10-17T01:21:25.418Z,7.52
2022-10-17T01:24:22.959Z,7.57
2022-10-17T01:27:07.961Z,7.53
2022-10-17T01:30:02.079Z,7.52
2022-10-17T01:32:36.658Z,7.55
2022-10-17T01:35:11.876Z,7.50
2022-10-17T01:37:45.168Z,7.49
2022-10-17T01:40:25.713Z,7.47
2022-10-17T01:43:16.685Z,7.50
2022-10-17T01:45:47.430Z,7.44
2022-10-17T01:48:22.917Z,7.42
2022-10-17T01:50:52.932Z,7.33
2022-10-17T01:53:23.245Z,7.38
2022-10-17T01:55:51.401Z,7.37
2022-10-17T01:58:23.765Z,7.37
2022-10-17T02:00:50.747Z,7.25
2022-10-17T02:03:19.417Z,7.32
2022-10-17T02:05:46.070Z,7.16
2022-10-17T02:08:12.688Z,7.32
2022-10-17T02:10:55.263Z,7.26
2022-10-17T02:13:43.399Z,7.19
2022-10-17T02:16:19.019Z,7.31
2022-10-17T02:19:16.298Z,7.29
2022-10-17T02:22:09.480Z,7.26
2022-10-17T02:24:42.688Z,7.22
2022-10-17T02:27:12.722Z,7.21
2022-10-17T02:29:50.493Z,7.19
2022-10-17T02:32:46.740Z,7.20
2022-10-17T02:35:17.076Z,7.11
2022-10-17T02:37:45.127Z,7.16
2022-10-17T02:40:14.291Z,7.00
2022-10-17T02:42:44.234Z,7.09
2022-10-17T02:45:11.091Z,7.00
2022-10-17T02:47:51.222Z,6.89
2022-10-17T02:50:21.649Z,6.82
2022-10-17T02:52:58.316Z,6.93
2022-10-17T02:55:36.616Z,6.90
2022-10-17T02:58:11.856Z,6.90
2022-10-17T03:00:39.325Z,6.87
2022-10-17T03:03:22.990Z,6.87
2022-10-17T03:05:50.133Z,6.84
2022-10-17T03:08:16.484Z,6.75
2022-10-17T03:10:42.710Z,6.67
2022-10-17T03:13:09.967Z,6.83
2022-10-17T03:15:37.539Z,6.72
2022-10-17T03:18:03.893Z,6.75
2022-10-17T03:20:30.620Z,6.76
2022-10-17T03:22:56.877Z,6.78
2022-10-17T03:25:23.281Z,6.73
2022-10-17T03:27:49.998Z,6.77
2022-10-17T03:30:16.368Z,6.82
2022-10-17T03:32:42.592Z,6.79
2022-10-17T03:35:14.004Z,6.79
2022-10-17T03:37:43.451Z,6.85
2022-10-17T03:40:10.561Z,6.93
2022-10-17T03:42:36.832Z,6.78
2022-10-17T03:45:03.331Z,6.98
2022-10-17T03:47:31.153Z,7.00
2022-10-17T03:49:57.575Z,7.00
2022-10-17T03:52:23.891Z,7.00
2022-10-17T03:54:51.262Z,6.98
2022-10-17T03:57:18.555Z,6.94
2022-10-17T03:59:44.874Z,6.86
2022-10-17T04:02:11.660Z,6.89
2022-10-17T04:04:38.188Z,6.92
2022-10-17T04:07:04.639Z,6.90
2022-10-17T04:09:33.443Z,6.89
2022-10-17T04:12:00.323Z,6.89
2022-10-17T04:14:26.999Z,6.87
2022-10-17T04:16:53.588Z,6.84
2022-10-17T04:19:20.333Z,6.82
2022-10-17T04:21:46.614Z,6.81
2022-10-17T04:24:13.061Z,6.79
2022-10-17T04:26:39.966Z,6.80
2022-10-17T04:29:06.338Z,6.83
2022-10-17T04:31:32.796Z,6.79
2022-10-17T04:33:59.768Z,6.75
2022-10-17T04:36:26.378Z,6.76
2022-10-17T04:38:52.783Z,6.75
2022-10-17T04:41:20.032Z,6.72
2022-10-17T04:43:50.137Z,6.71
2022-10-17T04:46:18.230Z,6.65
2022-10-17T04:48:47.174Z,6.70
2022-10-17T04:51:16.590Z,6.70
2022-10-17T04:53:43.942Z,6.68
2022-10-17T04:56:15.403Z,6.70
2022-10-17T04:58:42.858Z,6.73
2022-10-17T05:01:11.950Z,6.72
2022-10-17T05:03:39.291Z,6.72
2022-10-17T05:06:10.884Z,6.72
2022-10-17T05:08:37.788Z,6.70
2022-10-17T05:11:05.828Z,6.72
2022-10-17T05:13:32.982Z,6.74
2022-10-17T05:16:01.159Z,6.78
2022-10-17T05:18:28.974Z,6.77
2022-10-17T05:20:56.216Z,6.75
2022-10-17T05:23:23.441Z,6.85
2022-10-17T05:25:55.119Z,6.86
2022-10-17T05:28:23.966Z,6.90
2022-10-17T05:30:51.038Z,6.91
2022-10-17T05:33:17.331Z,6.90
2022-10-17T05:35:44.543Z,6.84
2022-10-17T05:38:11.075Z,6.93
2022-10-17T05:40:39.357Z,6.86
2022-10-17T05:43:06.037Z,6.98
2022-10-17T05:45:32.635Z,6.88
2022-10-17T05:47:59.336Z,7.01
2022-10-17T05:50:25.839Z,7.08
2022-10-17T05:52:54.451Z,7.13
2022-10-17T05:55:22.617Z,7.16
2022-10-17T05:57:53.863Z,7.19
2022-10-17T06:00:22.111Z,7.15
2022-10-17T06:02:49.360Z,7.15
2022-10-17T06:05:16.219Z,7.31
2022-10-17T06:07:42.787Z,7.35
2022-10-17T06:10:10.000Z,7.39
2022-10-17T06:12:36.441Z,7.47
2022-10-17T06:15:02.877Z,7.55
2022-10-17T06:17:30.356Z,7.57
2022-10-17T06:19:57.562Z,7.69
2022-10-17T06:22:23.871Z,7.76
2022-10-17T06:24:50.487Z,7.77
2022-10-17T06:27:16.735Z,7.94
2022-10-17T06:29:42.988Z,8.07
2022-10-17T06:32:12.761Z,8.19
2022-10-17T06:34:42.029Z,8.31
2022-10-17T06:37:08.710Z,8.42
2022-10-17T06:39:38.229Z,8.53
2022-10-17T06:42:04.820Z,8.55
2022-10-17T06:44:35.594Z,8.77
2022-10-17T06:47:20.242Z,8.92
2022-10-17T06:49:46.965Z,9.06
2022-10-17T06:52:13.522Z,9.18
2022-10-17T06:54:40.062Z,9.20
2022-10-17T06:57:06.709Z,9.38
2022-10-17T06:59:33.913Z,9.57
2022-10-17T07:02:01.250Z,9.63
2022-10-17T07:04:28.521Z,9.79
2022-10-17T07:06:54.902Z,10.02
2022-10-17T07:09:22.778Z,10.12
2022-10-17T07:11:49.332Z,10.27
2022-10-17T07:14:16.121Z,10.43
2022-10-17T07:16:42.605Z,10.70
2022-10-17T07:19:10.117Z,10.86
2022-10-17T07:21:39.146Z,11.01
2022-10-17T07:24:07.471Z,11.21
2022-10-17T07:26:34.188Z,11.40
2022-10-17T07:29:01.793Z,11.52
2022-10-17T07:31:28.438Z,11.61
2022-10-17T07:33:54.976Z,11.91
2022-10-17T07:36:21.254Z,12.15
2022-10-17T07:38:47.758Z,12.30
2022-10-17T07:41:19.205Z,12.48
2022-10-17T07:43:48.178Z,12.69
2022-10-17T07:46:15.454Z,13.22
2022-10-17T07:48:41.819Z,14.41
2022-10-17T07:51:09.217Z,15.95
2022-10-17T07:53:37.358Z,17.29
2022-10-17T07:56:06.612Z,18.47
2022-10-17T07:58:32.885Z,19.51
2022-10-17T08:01:03.771Z,19.77
2022-10-17T08:03:30.316Z,20.54
2022-10-17T08:06:03.475Z,21.40
2022-10-17T08:08:30.037Z,22.36
2022-10-17T08:10:56.557Z,22.95
2022-10-17T08:13:23.318Z,23.11
2022-10-17T08:15:49.847Z,23.60
2022-10-17T08:18:16.236Z,23.98
2022-10-17T08:20:42.498Z,24.31
2022-10-17T08:23:09.040Z,24.57
2022-10-17T08:25:35.289Z,24.76
2022-10-17T08:28:01.577Z,23.99
2022-10-17T08:30:30.644Z,25.18
2022-10-17T08:32:56.939Z,25.39
2022-10-17T08:35:23.777Z,25.49
2022-10-17T08:37:50.312Z,25.19
2022-10-17T08:40:20.867Z,24.91
2022-10-17T08:43:03.810Z,25.73
2022-10-17T08:46:08.960Z,25.72
2022-10-17T08:48:43.956Z,26.95
2022-10-17T08:51:17.567Z,26.92
2022-10-17T08:53:53.562Z,26.65
2022-10-17T08:56:43.967Z,26.60
2022-10-17T08:59:14.426Z,26.66
2022-10-17T09:02:07.056Z,26.62
2022-10-17T09:04:51.980Z,27.08
2022-10-17T09:07:28.100Z,27.21
2022-10-17T09:10:21.388Z,27.59
2022-10-17T09:12:56.745Z,27.10
2022-10-17T09:15:41.872Z,27.51
2022-10-17T09:18:17.620Z,26.95
2022-10-17T09:20:55.100Z,27.54
2022-10-17T09:23:24.105Z,27.24
2022-10-17T09:25:59.843Z,27.34
2022-10-17T09:28:33.715Z,28.08
2022-10-17T09:31:04.527Z,28.84
2022-10-17T09:33:53.377Z,28.82
2022-10-17T09:36:21.568Z,29.30
2022-10-17T09:38:52.910Z,28.96
2022-10-17T09:41:45.836Z,29.45
2022-10-17T09:44:54.363Z,29.35
2022-10-17T09:47:30.239Z,29.58
2022-10-17T09:49:57.053Z,29.79
2022-10-17T09:52:32.325Z,30.13
2022-10-17T09:55:04.500Z,29.58
2022-10-17T09:57:57.714Z,29.38
2022-10-17T10:00:29.846Z,29.11
2022-10-17T10:03:16.756Z,29.15
2022-10-17T10:06:26.879Z,28.74
2022-10-17T10:08:55.703Z,29.04
2022-10-17T10:11:27.130Z,28.06
2022-10-17T10:13:53.689Z,28.17
2022-10-17T10:16:31.520Z,28.30
2022-10-17T10:18:58.786Z,28.32
2022-10-17T10:21:27.141Z,28.37
2022-10-17T10:24:01.990Z,28.49
2022-10-17T10:26:34.211Z,29.41
2022-10-17T10:29:05.878Z,29.78
2022-10-17T10:31:35.658Z,29.62
2022-10-17T10:34:14.373Z,29.59
2022-10-17T10:36:52.604Z,30.04
2022-10-17T10:39:34.766Z,29.92
2022-10-17T10:42:02.876Z,29.84
2022-10-17T10:44:31.158Z,30.01
2022-10-17T10:47:17.385Z,29.32
2022-10-17T10:49:44.230Z,29.54
2022-10-17T10:52:18.414Z,29.88
2022-10-17T10:55:10.735Z,29.98
2022-10-17T10:57:38.034Z,30.30
2022-10-17T11:00:15.464Z,30.65
2022-10-17T11:02:52.978Z,29.71
2022-10-17T11:05:37.684Z,29.98
2022-10-17T11:08:13.961Z,28.97
2022-10-17T11:11:18.272Z,27.95
2022-10-17T11:13:51.835Z,28.21
2022-10-17T11:16:20.517Z,27.00
2022-10-17T11:19:03.601Z,26.09
2022-10-17T11:21:59.372Z,25.13
2022-10-17T11:24:51.851Z,24.49
2022-10-17T11:27:18.375Z,23.83
2022-10-17T11:29:45.658Z,23.26
2022-10-17T11:32:17.805Z,22.98
2022-10-17T11:34:47.623Z,22.70
2022-10-17T11:37:27.315Z,22.53
2022-10-17T11:40:06.825Z,22.33
2022-10-17T11:42:38.541Z,22.15
2022-10-17T11:45:11.711Z,21.61
2022-10-17T11:47:40.639Z,21.45
2022-10-17T11:53:17.498Z,21.03
2022-10-17T11:55:44.609Z,20.98
2022-10-17T12:01:23.664Z,21.02
2022-10-17T12:04:10.682Z,20.91
2022-10-17T12:06:48.997Z,20.88
2022-10-17T12:09:15.445Z,20.77
2022-10-17T12:11:57.707Z,20.70
2022-10-17T12:14:33.283Z,20.42
2022-10-17T12:17:01.159Z,20.36
2022-10-17T12:19:37.717Z,20.34
2022-10-17T12:22:12.815Z,20.45
2022-10-17T12:24:44.754Z,20.61
2022-10-17T12:27:45.914Z,20.54
2022-10-17T12:30:12.528Z,20.37
2022-10-17T12:33:08.026Z,20.38
2022-10-17T12:35:37.093Z,20.22
2022-10-17T12:38:15.210Z,20.24
2022-10-17T12:40:46.324Z,20.31
2022-10-17T12:43:15.046Z,20.11
2022-10-17T12:45:52.370Z,20.18
2022-10-17T12:48:34.288Z,20.08
2022-10-17T12:51:34.323Z,20.03
2022-10-17T12:53:59.945Z,20.01
2022-10-17T12:56:40.270Z,20.02
2022-10-17T12:59:10.078Z,20.01
2022-10-17T13:01:38.166Z,19.91
2022-10-17T13:04:06.550Z,19.97
2022-10-17T13:06:40.275Z,19.96
2022-10-17T13:09:18.697Z,19.95
2022-10-17T13:11:45.082Z,20.03
2022-10-17T13:14:13.619Z,19.95
2022-10-17T13:17:00.728Z,19.96
2022-10-17T13:19:40.231Z,19.97
2022-10-17T13:22:19.039Z,20.00
2022-10-17T13:24:46.232Z,20.01
2022-10-17T13:27:33.183Z,19.93
2022-10-17T13:30:01.866Z,19.91
2022-10-17T13:32:37.170Z,19.74
2022-10-17T13:35:11.997Z,19.67
2022-10-17T13:37:40.430Z,19.64
2022-10-17T13:40:40.195Z,19.62
2022-10-17T13:42:56.136Z,19.53
2022-10-17T13:45:37.317Z,19.47
2022-10-17T13:48:06.372Z,19.27
2022-10-17T13:50:44.546Z,19.10
2022-10-17T13:53:26.502Z,18.97
2022-10-17T13:56:27.209Z,18.99
2022-10-17T13:58:57.462Z,19.03
2022-10-17T14:01:26.434Z,19.04
2022-10-17T14:04:07.281Z,19.04
2022-10-17T14:06:34.735Z,18.92
2022-10-17T14:09:04.101Z,18.59
2022-10-17T14:11:32.658Z,18.49
2022-10-17T14:13:59.949Z,18.34
2022-10-17T14:16:32.918Z,18.14
2022-10-17T14:18:59.326Z,18.23
2022-10-17T14:21:40.966Z,18.11
2022-10-17T14:24:28.123Z,18.20
2022-10-17T14:26:58.645Z,18.25
2022-10-17T14:29:29.618Z,18.15
2022-10-17T14:32:08.542Z,17.90
2022-10-17T14:34:37.562Z,17.71
2022-10-17T14:37:12.480Z,17.45
2022-10-17T14:39:39.259Z,17.37
2022-10-17T14:42:05.583Z,17.36
2022-10-17T14:44:34.091Z,17.17
2022-10-17T14:47:30.837Z,16.93
2022-10-17T14:50:07.938Z,16.85
2022-10-17T14:52:35.484Z,16.78
2022-10-17T14:55:20.420Z,16.72
2022-10-17T14:57:47.011Z,16.61
2022-10-17T15:00:15.155Z,16.47
2022-10-17T15:02:41.738Z,16.42
2022-10-17T15:05:12.978Z,16.22
2022-10-17T15:07:39.776Z,16.06
2022-10-17T15:10:06.545Z,16.08
2022-10-17T15:12:33.366Z,15.94
2022-10-17T15:14:59.594Z,15.82
2022-10-17T15:17:30.957Z,15.73
2022-10-17T15:19:58.340Z,15.63
2022-10-17T15:22:24.740Z,15.53
2022-10-17T15:24:51.074Z,15.45
2022-10-17T15:27:22.740Z,15.38
2022-10-17T15:29:49.900Z,15.27
2022-10-17T15:32:16.552Z,15.08
2022-10-17T15:34:43.171Z,15.07
2022-10-17T15:37:24.480Z,15.01
2022-10-17T15:39:54.137Z,14.92
2022-10-17T15:42:28.848Z,14.82
2022-10-17T15:44:56.066Z,14.71
2022-10-17T15:47:27.227Z,14.64
2022-10-17T15:49:55.092Z,14.56
2022-10-17T15:52:22.436Z,14.45
2022-10-17T15:54:48.818Z,14.39
2022-10-17T15:57:29.710Z,14.30
2022-10-17T15:59:57.708Z,14.23
2022-10-17T16:02:24.394Z,14.16
2022-10-17T16:04:52.182Z,14.07
2022-10-17T16:07:19.913Z,14.00
2022-10-17T16:09:46.683Z,13.86
2022-10-17T16:12:17.745Z,13.78
2022-10-17T16:14:44.367Z,13.75
2022-10-17T16:17:17.275Z,13.58
2022-10-17T16:19:44.101Z,13.52
2022-10-17T16:22:36.511Z,13.48
2022-10-17T16:25:09.729Z,13.37
2022-10-17T16:27:37.113Z,13.31
2022-10-17T16:30:06.221Z,13.23
2022-10-17T16:32:32.793Z,13.16
2022-10-17T16:35:01.932Z,13.10
2022-10-17T16:37:30.856Z,13.05
2022-10-17T16:39:57.123Z,12.90
2022-10-17T16:42:23.471Z,12.94
2022-10-17T16:44:50.327Z,12.91
2022-10-17T16:47:19.730Z,12.76
2022-10-17T16:49:46.033Z,12.81
2022-10-17T16:52:13.109Z,12.67
2022-10-17T16:54:39.341Z,12.73
2022-10-17T16:57:05.614Z,12.68
2022-10-17T16:59:32.253Z,12.63
2022-10-17T17:01:58.498Z,12.58
2022-10-17T17:04:24.761Z,12.52
2022-10-17T17:06:51.264Z,12.48
2022-10-17T17:09:17.598Z,12.43
2022-10-17T17:11:43.924Z,12.37
2022-10-17T17:14:11.102Z,12.32
2022-10-17T17:16:37.342Z,12.26
2022-10-17T17:19:10.485Z,12.22
2022-10-17T17:21:37.204Z,12.18
2022-10-17T17:24:04.279Z,12.08
2022-10-17T17:26:33.223Z,12.12
2022-10-17T17:29:00.431Z,12.02
2022-10-17T17:31:29.151Z,12.01
2022-10-17T17:36:30.723Z,11.99
2022-10-17T17:38:59.979Z,11.94
2022-10-17T17:41:26.900Z,11.89
2022-10-17T17:43:53.909Z,11.87
2022-10-17T17:46:21.442Z,11.75
2022-10-17T17:48:48.906Z,11.72
2022-10-17T17:51:17.667Z,11.73
2022-10-17T17:53:44.326Z,11.70
2022-10-17T17:56:16.668Z,11.68
2022-10-17T17:58:48.473Z,11.64
2022-10-17T18:01:19.320Z,11.63
2022-10-17T18:03:46.862Z,11.62
2022-10-17T18:06:13.907Z,11.61
2022-10-17T18:08:40.149Z,11.59
2022-10-17T18:11:06.693Z,11.57
2022-10-17T18:13:32.930Z,11.55
2022-10-17T18:16:00.781Z,11.53
2022-10-17T18:18:29.223Z,11.40
2022-10-17T18:20:55.910Z,11.48
2022-10-17T18:23:22.879Z,11.31
2022-10-17T18:25:56.033Z,11.42
2022-10-17T18:28:22.858Z,11.36
2022-10-17T18:30:49.473Z,11.32
2022-10-17T18:33:15.846Z,11.25
2022-10-17T18:35:42.141Z,11.15
2022-10-17T18:38:08.675Z,11.22
2022-10-17T18:40:34.945Z,11.17
2022-10-17T18:46:47.866Z,11.13
2022-10-17T18:49:23.219Z,11.12
2022-10-17T18:51:49.803Z,10.97
2022-10-17T18:54:20.496Z,11.07
2022-10-17T18:56:50.978Z,11.02
2022-10-17T18:59:18.651Z,11.03
2022-10-17T19:01:45.052Z,11.00
2022-10-17T19:04:11.808Z,10.98
2022-10-17T19:06:38.986Z,10.95
2022-10-17T19:09:07.604Z,10.85
2022-10-17T19:11:34.970Z,10.83
2022-10-17T19:14:02.918Z,10.85
2022-10-17T19:16:34.794Z,10.86
2022-10-17T19:19:06.920Z,10.80
2022-10-17T19:21:34.035Z,10.75
2022-10-17T19:24:02.894Z,10.74
2022-10-17T19:26:31.223Z,10.70
2022-10-17T19:29:00.408Z,10.67
2022-10-17T19:31:28.824Z,10.66
2022-10-17T19:33:56.246Z,10.64
2022-10-17T19:36:27.586Z,10.64
2022-10-17T19:38:57.120Z,10.55
2022-10-17T19:41:23.796Z,10.58
2022-10-17T19:43:50.141Z,10.55
2022-10-17T19:46:18.654Z,10.51
2022-10-17T19:48:45.184Z,10.50
2022-10-17T19:51:13.367Z,10.39
2022-10-17T19:53:39.993Z,10.32
2022-10-17T19:56:06.834Z,10.39
2022-10-17T19:58:34.110Z,10.35
2022-10-17T20:01:01.217Z,10.32
2022-10-17T20:03:28.205Z,10.31
2022-10-17T20:05:55.112Z,10.26
2022-10-17T20:08:21.579Z,10.26
2022-10-17T20:10:48.240Z,10.26
2022-10-17T20:13:14.741Z,10.19
2022-10-17T20:15:41.337Z,10.23
2022-10-17T20:18:08.404Z,10.18
2022-10-17T20:20:35.702Z,10.06
2022-10-17T20:23:02.715Z,9.99
2022-10-17T20:25:29.332Z,10.08
2022-10-17T20:27:55.722Z,10.05
2022-10-17T20:30:21.998Z,10.00
2022-10-17T20:32:48.513Z,9.95
2022-10-17T20:35:14.761Z,9.92
2022-10-17T20:37:42.672Z,9.88
2022-10-17T20:40:33.659Z,9.84
2022-10-17T20:42:56.234Z,9.82
2022-10-17T20:45:37.357Z,9.77
2022-10-17T20:48:15.072Z,9.73
2022-10-17T20:50:42.842Z,9.69
2022-10-17T20:53:34.749Z,9.60
2022-10-17T20:56:04.735Z,9.63
2022-10-17T20:58:31.103Z,9.61
2022-10-17T21:00:57.612Z,9.57
2022-10-17T21:03:24.338Z,9.55
2022-10-17T21:05:50.566Z,9.54
2022-10-17T21:08:17.082Z,9.48
2022-10-17T21:10:43.307Z,9.48
2022-10-17T21:13:09.836Z,9.46
2022-10-17T21:15:36.393Z,9.46
2022-10-17T21:18:02.618Z,9.44
2022-10-17T21:20:28.873Z,9.43
2022-10-17T21:22:55.409Z,9.41
2022-10-17T21:25:21.663Z,9.30
2022-10-17T21:27:47.897Z,9.38
2022-10-17T21:30:14.397Z,9.35
2022-10-17T21:32:51.618Z,9.33
2022-10-17T21:35:18.462Z,9.33
2022-10-17T21:37:44.681Z,9.32
2022-10-17T21:40:11.616Z,9.31
2022-10-17T21:42:38.133Z,9.30
2022-10-17T21:45:10.687Z,9.27
2022-10-17T21:48:11.186Z,9.25
2022-10-17T21:50:32.941Z,9.13
2022-10-17T21:52:59.465Z,9.18
2022-10-17T21:55:25.682Z,9.20
2022-10-17T21:57:51.936Z,9.21
2022-10-17T22:00:18.609Z,9.20
2022-10-17T22:02:45.160Z,9.12
2022-10-17T22:05:11.447Z,9.14
2022-10-17T22:07:37.722Z,9.06
2022-10-17T22:10:04.628Z,9.08
2022-10-17T22:12:31.047Z,9.05
2022-10-17T22:14:57.530Z,9.03
2022-10-17T22:17:24.298Z,9.01
2022-10-17T22:19:50.509Z,8.98
2022-10-17T22:22:16.773Z,8.95
2022-10-17T22:24:43.292Z,8.94
2022-10-17T22:27:12.278Z,8.92
2022-10-17T22:29:39.653Z,8.91
2022-10-17T22:32:06.170Z,8.81
2022-10-17T22:34:32.416Z,8.86
2022-10-17T22:36:58.647Z,8.84
2022-10-17T22:39:25.485Z,8.69
2022-10-17T22:41:51.719Z,8.78
2022-10-17T22:44:18.013Z,8.71
2022-10-17T22:46:44.508Z,8.73
2022-10-17T22:49:10.787Z,8.70
2022-10-17T22:51:37.003Z,8.67
2022-10-17T22:54:03.513Z,8.59
2022-10-17T22:56:29.775Z,8.63
2022-10-17T22:58:56.043Z,8.66
2022-10-17T23:01:24.072Z,8.65
2022-10-17T23:03:51.354Z,8.69
2022-10-17T23:06:18.104Z,8.64
2022-10-17T23:08:44.636Z,8.70
2022-10-17T23:11:12.718Z,8.68
2022-10-17T23:13:40.673Z,8.60
2022-10-17T23:16:07.836Z,8.53
2022-10-17T23:18:34.136Z,8.66
2022-10-17T23:21:00.442Z,8.62
2022-10-17T23:23:26.962Z,8.60
2022-10-17T23:25:53.200Z,8.60
2022-10-17T23:28:19.669Z,8.57
2022-10-17T23:30:46.397Z,8.55
2022-10-17T23:33:13.726Z,8.45
2022-10-17T23:35:40.448Z,8.56
2022-10-17T23:38:07.098Z,8.54
2022-10-17T23:40:34.779Z,8.40
2022-10-17T23:43:01.016Z,8.51
2022-10-17T23:45:27.621Z,8.51
2022-10-17T23:47:53.914Z,8.48
2022-10-17T23:50:20.147Z,8.47
2022-10-17T23:52:46.741Z,8.44
2022-10-17T23:55:13.009Z,8.44
2022-10-17T23:57:39.239Z,8.30
